Cosby, Missouri
Current Conditions -  °F | °C
As of 12:53 PM on Friday 24 Oct 2014 (Local Time) from KSTJ Reporting Station
Clear Clear  
Wind Chill: 69°   Ceiling: Unl
Heat Index: 69°   Visibility: 10mi
Dew Point: 61°   Wind: 9mph
Humidity: 75%   Direction: 210°SSW
Pressure: 29.99"   Gusts: NA
Location:  39.86°N, 94.68°W
Report Text: KSTJ 241753Z 21008KT 10SM CLR 21/16 A2999 RMK AO2 SLP151 T02060161 10206 20139 58011
Loading
Personal Weather Stations






























Interactive Weather Map
Tropical Storm Tracking
New forecast layout! Learn more

10-Day Weather Forecast

Advertisements
Track Severe Weather on mobile